createdAt,value
2023-01-17T00:00:22.581Z,97660.87
2023-01-17T00:02:54.147Z,97678.81
2023-01-17T00:05:39.273Z,97670.97
2023-01-17T00:08:32.957Z,97654.53
2023-01-17T00:10:59.538Z,97653.87
2023-01-17T00:13:26.606Z,97645.94
2023-01-17T00:15:53.303Z,97645.63
2023-01-17T00:18:25.049Z,97659.16
2023-01-17T00:21:09.840Z,97649.41
2023-01-17T00:23:54.863Z,97642.19
2023-01-17T00:26:59.530Z,97647.50
2023-01-17T00:29:50.066Z,97652.16
2023-01-17T00:32:19.576Z,97643.56
2023-01-17T00:34:46.075Z,97648.22
2023-01-17T00:37:12.585Z,97651.13
2023-01-17T00:39:39.084Z,97651.22
2023-01-17T00:42:05.573Z,97643.19
2023-01-17T00:44:50.518Z,97648.22
2023-01-17T00:47:35.662Z,97642.44
2023-01-17T00:50:20.568Z,97643.84
2023-01-17T00:53:06.127Z,97638.28
2023-01-17T00:55:52.219Z,97647.41
2023-01-17T00:59:18.013Z,97647.13
2023-01-17T01:02:06.288Z,97643.53
2023-01-17T01:04:51.477Z,97658.94
2023-01-17T01:07:36.371Z,97661.06
2023-01-17T01:10:21.670Z,97653.50
2023-01-17T01:13:06.514Z,97630.44
2023-01-17T01:18:30.146Z,97648.97
2023-01-17T01:21:20.127Z,97655.06
2023-01-17T01:24:05.100Z,97655.13
2023-01-17T01:30:23.810Z,97664.41
2023-01-17T01:33:09.071Z,97667.47
2023-01-17T01:35:36.746Z,97682.81
2023-01-17T01:38:03.957Z,97686.63
2023-01-17T01:40:30.501Z,97684.63
2023-01-17T01:42:59.704Z,97682.19
2023-01-17T01:48:07.182Z,97664.56
2023-01-17T01:50:36.954Z,97665.94
2023-01-17T01:53:05.799Z,97642.47
2023-01-17T01:55:39.056Z,97642.44
2023-01-17T01:58:16.604Z,97643.00
2023-01-17T02:00:50.420Z,97634.97
2023-01-17T02:03:21.608Z,97629.13
2023-01-17T02:05:48.276Z,97621.19
2023-01-17T02:08:18.151Z,97628.91
2023-01-17T02:10:44.772Z,97619.47
2023-01-17T02:13:15.418Z,97624.50
2023-01-17T02:16:17.526Z,97619.22
2023-01-17T02:19:22.265Z,97624.84
2023-01-17T02:22:09.908Z,97632.56
2023-01-17T02:24:48.335Z,97633.47
2023-01-17T02:27:27.383Z,97636.75
2023-01-17T02:30:38.138Z,97632.44
2023-01-17T02:33:53.046Z,97631.41
2023-01-17T02:36:25.689Z,97627.53
2023-01-17T02:39:07.599Z,97619.28
2023-01-17T02:41:46.652Z,97612.38
2023-01-17T02:44:18.232Z,97611.12
2023-01-17T02:46:45.893Z,97603.88
2023-01-17T02:52:27.161Z,97590.75
2023-01-17T02:55:01.316Z,97573.69
2023-01-17T02:57:49.352Z,97561.25
2023-01-17T03:00:28.423Z,97553.38
2023-01-17T03:03:02.359Z,97555.31
2023-01-17T03:09:07.748Z,97551.00
2023-01-17T03:11:34.526Z,97536.06
2023-01-17T03:14:01.109Z,97537.63
2023-01-17T03:16:31.386Z,97540.22
2023-01-17T03:18:57.958Z,97531.47
2023-01-17T03:21:25.185Z,97528.41
2023-01-17T03:26:47.978Z,97522.44
2023-01-17T03:29:16.598Z,97526.88
2023-01-17T03:31:43.233Z,97514.03
2023-01-17T03:34:09.807Z,97510.53
2023-01-17T03:36:36.393Z,97503.44
2023-01-17T03:39:08.163Z,97502.47
2023-01-17T03:41:34.721Z,97495.88
2023-01-17T03:44:10.336Z,97488.50
2023-01-17T03:46:37.210Z,97499.16
2023-01-17T03:49:03.805Z,97495.19
2023-01-17T03:51:30.370Z,97490.69
2023-01-17T03:54:09.142Z,97483.00
2023-01-17T03:56:35.721Z,97481.44
2023-01-17T03:59:02.588Z,97490.97
2023-01-17T04:01:29.222Z,97494.09
2023-01-17T04:03:55.852Z,97494.53
2023-01-17T04:06:22.398Z,97489.28
2023-01-17T04:08:49.042Z,97486.22
2023-01-17T04:11:15.652Z,97479.66
2023-01-17T04:13:42.190Z,97487.22
2023-01-17T04:16:17.732Z,97472.31
2023-01-17T04:18:44.762Z,97477.63
2023-01-17T04:24:17.876Z,97482.94
2023-01-17T04:26:45.164Z,97498.44
2023-01-17T04:29:11.736Z,97493.37
2023-01-17T04:31:38.476Z,97500.69
2023-01-17T04:34:05.084Z,97500.16
2023-01-17T04:36:32.375Z,97493.97
2023-01-17T04:38:58.980Z,97496.25
2023-01-17T04:41:25.788Z,97503.69
2023-01-17T04:43:52.325Z,97492.97
2023-01-17T04:46:18.957Z,97495.50
2023-01-17T04:48:45.588Z,97487.75
2023-01-17T04:51:12.151Z,97494.06
2023-01-17T04:56:34.217Z,97503.00
2023-01-17T04:59:00.763Z,97502.88
2023-01-17T05:01:27.453Z,97495.69
2023-01-17T05:03:54.073Z,97499.56
2023-01-17T05:06:20.689Z,97500.09
2023-01-17T05:08:53.522Z,97499.19
2023-01-17T05:11:25.285Z,97491.94
2023-01-17T05:14:08.435Z,97498.34
2023-01-17T05:31:00.565Z,97500.34
2023-01-17T05:33:27.130Z,97498.06
2023-01-17T05:35:53.748Z,97507.72
2023-01-17T05:38:23.786Z,97499.69
2023-01-17T05:40:50.705Z,97516.16
2023-01-17T05:43:17.414Z,97507.84
2023-01-17T05:45:48.448Z,97522.06
2023-01-17T05:48:30.402Z,97527.59
2023-01-17T05:50:57.430Z,97531.81
2023-01-17T05:53:24.065Z,97536.66
2023-01-17T05:55:51.160Z,97541.22
2023-01-17T05:58:21.729Z,97539.31
2023-01-17T06:00:48.784Z,97543.56
2023-01-17T06:03:16.197Z,97548.53
2023-01-17T06:05:43.272Z,97564.69
2023-01-17T06:08:10.908Z,97563.28
2023-01-17T06:10:37.723Z,97569.09
2023-01-17T06:13:07.560Z,97570.37
2023-01-17T06:15:36.370Z,97571.56
2023-01-17T06:18:11.289Z,97580.50
2023-01-17T06:20:38.406Z,97576.56
2023-01-17T06:23:07.581Z,97583.19
2023-01-17T06:25:38.712Z,97583.59
2023-01-17T06:28:07.166Z,97587.66
2023-01-17T06:30:34.374Z,97581.78
2023-01-17T06:33:00.947Z,97587.78
2023-01-17T06:35:27.620Z,97595.44
2023-01-17T06:37:55.669Z,97593.25
2023-01-17T06:40:22.711Z,97610.78
2023-01-17T06:42:49.255Z,97620.78
2023-01-17T06:45:15.931Z,97622.19
2023-01-17T06:47:43.200Z,97619.75
2023-01-17T06:50:13.637Z,97631.16
2023-01-17T06:52:41.825Z,97632.09
2023-01-17T06:55:09.828Z,97633.66
2023-01-17T06:57:36.699Z,97632.34
2023-01-17T07:00:04.527Z,97650.47
2023-01-17T07:02:31.118Z,97651.16
2023-01-17T07:05:09.956Z,97648.94
2023-01-17T07:07:52.020Z,97645.63
2023-01-17T07:10:18.578Z,97661.63
2023-01-17T07:12:45.193Z,97671.19
2023-01-17T07:15:12.521Z,97668.63
2023-01-17T07:17:39.663Z,97671.41
2023-01-17T07:20:06.840Z,97675.75
2023-01-17T07:22:33.441Z,97677.75
2023-01-17T07:25:00.349Z,97682.34
2023-01-17T07:27:30.727Z,97694.44
2023-01-17T07:29:58.172Z,97689.91
2023-01-17T07:32:26.666Z,97690.44
2023-01-17T07:34:54.057Z,97695.66
2023-01-17T07:37:21.301Z,97714.69
2023-01-17T07:39:47.918Z,97720.38
2023-01-17T07:42:14.458Z,97720.56
2023-01-17T07:44:43.981Z,97720.31
2023-01-17T07:47:11.338Z,97728.69
2023-01-17T07:49:38.070Z,97734.41
2023-01-17T07:52:07.825Z,97744.69
2023-01-17T07:54:34.761Z,97746.59
2023-01-17T07:57:02.015Z,97752.22
2023-01-17T07:59:28.867Z,97751.22
2023-01-17T08:01:55.568Z,97750.81
2023-01-17T08:04:26.244Z,97759.97
2023-01-17T08:06:54.888Z,97768.28
2023-01-17T08:09:22.357Z,97773.13
2023-01-17T08:11:49.275Z,97775.25
2023-01-17T08:14:15.927Z,97769.44
2023-01-17T08:16:42.853Z,97771.28
2023-01-17T08:19:10.247Z,97778.75
2023-01-17T08:21:36.952Z,97779.97
2023-01-17T08:24:15.766Z,97781.06
2023-01-17T08:26:57.895Z,97781.00
2023-01-17T08:29:29.669Z,97787.56
2023-01-17T08:31:56.284Z,97799.69
2023-01-17T08:34:22.828Z,97795.06
2023-01-17T08:36:51.846Z,97800.19
2023-01-17T08:39:23.386Z,97799.78
2023-01-17T08:41:49.928Z,97795.03
2023-01-17T08:44:16.590Z,97809.59
2023-01-17T08:46:44.216Z,97805.37
2023-01-17T08:49:11.514Z,97807.16
2023-01-17T08:51:38.545Z,97810.72
2023-01-17T08:54:05.323Z,97807.22
2023-01-17T08:56:31.863Z,97815.66
2023-01-17T08:58:58.409Z,97818.38
2023-01-17T09:01:25.076Z,97818.09
2023-01-17T09:03:52.527Z,97814.94
2023-01-17T09:06:19.247Z,97820.63
2023-01-17T09:08:47.021Z,97823.75
2023-01-17T09:11:17.084Z,97825.69
2023-01-17T09:13:47.192Z,97830.13
2023-01-17T09:16:13.824Z,97831.22
2023-01-17T09:18:59.280Z,97823.38
2023-01-17T09:21:50.806Z,97830.19
2023-01-17T09:24:22.489Z,97823.03
2023-01-17T09:26:49.076Z,97822.09
2023-01-17T09:29:17.879Z,97824.69
2023-01-17T09:31:47.167Z,97833.22
2023-01-17T09:34:14.426Z,97839.25
2023-01-17T09:36:42.100Z,97848.47
2023-01-17T09:39:18.868Z,97848.09
2023-01-17T09:41:52.909Z,97851.31
2023-01-17T09:44:39.070Z,97866.59
2023-01-17T09:47:42.488Z,97859.94
2023-01-17T09:54:04.330Z,97880.03
2023-01-17T09:57:12.776Z,97880.88
2023-01-17T10:02:46.909Z,97892.38
2023-01-17T10:05:33.391Z,97900.03
2023-01-17T10:08:45.078Z,97900.38
2023-01-17T10:11:43.171Z,97902.97
2023-01-17T10:14:28.043Z,97885.34
2023-01-17T10:17:03.178Z,97892.41
2023-01-17T10:19:50.624Z,97892.41
2023-01-17T10:22:35.875Z,97895.59
2023-01-17T10:25:23.981Z,97881.97
2023-01-17T10:28:04.579Z,97895.25
2023-01-17T10:30:39.028Z,97901.31
2023-01-17T10:33:19.432Z,97900.19
2023-01-17T10:35:54.814Z,97885.44
2023-01-17T10:38:43.398Z,97885.66
2023-01-17T10:41:25.992Z,97878.56
2023-01-17T10:44:17.408Z,97871.47
2023-01-17T10:47:01.655Z,97865.59
2023-01-17T10:50:33.989Z,97861.81
2023-01-17T10:53:32.053Z,97859.19
2023-01-17T10:56:00.837Z,97861.63
2023-01-17T10:58:27.407Z,97858.38
2023-01-17T11:01:27.408Z,97845.59
2023-01-17T11:03:55.298Z,97834.25
2023-01-17T11:06:24.470Z,97838.28
2023-01-17T11:08:51.235Z,97824.22
2023-01-17T11:11:19.795Z,97822.25
2023-01-17T11:13:49.020Z,97815.84
2023-01-17T11:16:22.189Z,97818.44
2023-01-17T11:19:06.481Z,97831.25
2023-01-17T11:21:33.485Z,97823.34
2023-01-17T11:24:10.651Z,97815.22
2023-01-17T11:26:45.733Z,97797.19
2023-01-17T11:29:23.895Z,97800.41
2023-01-17T11:31:50.450Z,97806.03
2023-01-17T11:34:22.673Z,97791.88
2023-01-17T11:36:50.003Z,97793.47
2023-01-17T11:39:19.760Z,97790.69
2023-01-17T11:41:47.892Z,97787.03
2023-01-17T11:44:35.415Z,97782.69
2023-01-17T11:47:12.372Z,97792.03
2023-01-17T11:49:40.679Z,97787.75
2023-01-17T11:52:36.036Z,97799.91
2023-01-17T11:55:02.734Z,97796.69
2023-01-17T11:57:33.416Z,97815.47
2023-01-17T12:00:08.992Z,97814.06
2023-01-17T12:03:15.295Z,97815.72
2023-01-17T12:06:09.131Z,97826.38
2023-01-17T12:08:54.469Z,97822.22
2023-01-17T12:12:05.929Z,97813.31
2023-01-17T12:15:10.319Z,97817.81
2023-01-17T12:18:14.335Z,97819.47
2023-01-17T12:20:49.752Z,97827.16
2023-01-17T12:23:34.135Z,97830.75
2023-01-17T12:26:25.579Z,97823.13
2023-01-17T12:29:07.869Z,97805.37
2023-01-17T12:31:38.854Z,97805.31
2023-01-17T12:34:13.988Z,97806.25
2023-01-17T12:36:52.537Z,97804.34
2023-01-17T12:39:26.126Z,97806.78
2023-01-17T12:42:13.502Z,97804.59
2023-01-17T12:45:04.574Z,97813.41
2023-01-17T12:47:34.803Z,97810.84
2023-01-17T12:50:16.044Z,97804.66
2023-01-17T12:53:19.039Z,97795.53
2023-01-17T12:56:01.976Z,97800.03
2023-01-17T12:58:36.885Z,97794.53
2023-01-17T13:01:11.176Z,97791.34
2023-01-17T13:03:44.922Z,97800.72
2023-01-17T13:06:22.116Z,97796.03
2023-01-17T13:08:53.584Z,97795.56
2023-01-17T13:11:44.203Z,97797.81
2023-01-17T13:14:10.829Z,97801.09
2023-01-17T13:16:37.472Z,97809.66
2023-01-17T13:19:24.845Z,97818.25
2023-01-17T13:21:52.386Z,97813.97
2023-01-17T13:24:35.947Z,97817.31
2023-01-17T13:27:34.859Z,97820.56
2023-01-17T13:30:32.230Z,97820.69
2023-01-17T13:33:32.902Z,97808.50
2023-01-17T13:36:30.084Z,97803.09
2023-01-17T13:39:29.699Z,97798.63
2023-01-17T13:42:25.055Z,97795.25
2023-01-17T13:44:52.067Z,97788.97
2023-01-17T13:47:18.566Z,97792.16
2023-01-17T13:49:50.821Z,97787.88
2023-01-17T13:52:20.268Z,97779.22
2023-01-17T13:55:07.364Z,97773.81
2023-01-17T13:57:42.073Z,97774.16
2023-01-17T14:00:21.525Z,97759.66
2023-01-17T14:02:49.666Z,97759.72
2023-01-17T14:05:23.403Z,97749.84
2023-01-17T14:08:14.368Z,97743.75
2023-01-17T14:10:47.761Z,97734.28
2023-01-17T14:13:37.354Z,97716.66
2023-01-17T14:16:26.947Z,97716.72
2023-01-17T14:18:54.473Z,97697.81
2023-01-17T14:21:27.192Z,97698.47
2023-01-17T14:24:20.184Z,97703.72
2023-01-17T14:26:58.559Z,97701.69
2023-01-17T14:29:43.925Z,97694.31
2023-01-17T14:32:17.488Z,97686.81
2023-01-17T14:34:46.524Z,97686.34
2023-01-17T14:37:22.339Z,97671.09
2023-01-17T14:39:51.034Z,97668.75
2023-01-17T14:42:22.291Z,97665.41
2023-01-17T14:44:52.818Z,97669.06
2023-01-17T14:47:19.982Z,97669.53
2023-01-17T14:49:46.516Z,97661.19
2023-01-17T14:52:23.629Z,97657.88
2023-01-17T14:54:53.992Z,97646.37
2023-01-17T14:57:28.123Z,97646.06
2023-01-17T15:00:19.252Z,97652.44
2023-01-17T15:02:50.126Z,97661.84
2023-01-17T15:05:20.056Z,97649.41
2023-01-17T15:07:49.733Z,97655.72
2023-01-17T15:10:24.027Z,97655.72
2023-01-17T15:12:52.313Z,97659.09
2023-01-17T15:15:28.253Z,97668.56
2023-01-17T15:18:13.146Z,97665.41
2023-01-17T15:20:42.754Z,97663.13
2023-01-17T15:23:18.303Z,97650.69
2023-01-17T15:25:49.489Z,97644.56
2023-01-17T15:28:16.714Z,97640.63
2023-01-17T15:31:00.683Z,97641.22
2023-01-17T15:33:27.693Z,97636.78
2023-01-17T15:36:21.393Z,97640.72
2023-01-17T15:39:00.425Z,97639.97
2023-01-17T15:41:34.805Z,97633.88
2023-01-17T15:44:02.438Z,97628.63
2023-01-17T15:46:42.095Z,97621.13
2023-01-17T15:49:21.048Z,97615.69
2023-01-17T15:51:51.487Z,97610.44
2023-01-17T15:54:50.589Z,97603.22
2023-01-17T15:57:18.025Z,97595.31
2023-01-17T16:00:14.787Z,97596.88
2023-01-17T16:02:46.394Z,97588.81
2023-01-17T16:05:22.777Z,97593.56
2023-01-17T16:07:53.135Z,97590.06
2023-01-17T16:10:22.220Z,97586.75
2023-01-17T16:12:53.899Z,97585.59
2023-01-17T16:15:22.148Z,97587.88
2023-01-17T16:17:51.674Z,97592.19
2023-01-17T16:20:28.145Z,97591.78
2023-01-17T16:22:54.754Z,97587.91
2023-01-17T16:25:23.809Z,97584.22
2023-01-17T16:27:51.080Z,97568.94
2023-01-17T16:30:21.302Z,97566.19
2023-01-17T16:32:49.104Z,97563.78
2023-01-17T16:35:21.542Z,97557.53
2023-01-17T16:37:53.219Z,97554.19
2023-01-17T16:40:21.862Z,97557.47
2023-01-17T16:42:48.552Z,97553.66
2023-01-17T16:45:16.261Z,97548.69
2023-01-17T16:47:46.989Z,97544.81
2023-01-17T16:50:16.435Z,97541.44
2023-01-17T16:52:43.027Z,97542.53
2023-01-17T16:55:14.276Z,97539.22
2023-01-17T16:57:40.992Z,97536.66
2023-01-17T17:00:09.839Z,97534.28
2023-01-17T17:02:38.563Z,97528.81
2023-01-17T17:05:07.404Z,97531.87
2023-01-17T17:07:43.049Z,97523.94
2023-01-17T17:10:11.218Z,97531.06
2023-01-17T17:12:37.901Z,97516.28
2023-01-17T17:15:05.408Z,97522.19
2023-01-17T17:17:39.831Z,97509.25
2023-01-17T17:20:09.840Z,97506.97
2023-01-17T17:22:36.425Z,97503.19
2023-01-17T17:25:03.401Z,97501.47
2023-01-17T17:27:29.957Z,97492.78
2023-01-17T17:29:56.506Z,97475.53
2023-01-17T17:32:23.365Z,97477.91
2023-01-17T17:34:52.861Z,97482.66
2023-01-17T17:37:19.532Z,97466.12
2023-01-17T17:39:46.144Z,97463.91
2023-01-17T17:42:12.949Z,97464.91
2023-01-17T17:44:39.567Z,97451.22
2023-01-17T17:47:06.180Z,97439.59
2023-01-17T17:49:32.911Z,97434.91
2023-01-17T17:52:06.886Z,97427.63
2023-01-17T17:54:33.994Z,97427.22
2023-01-17T17:57:00.699Z,97427.03
2023-01-17T17:59:27.309Z,97421.28
2023-01-17T18:01:54.164Z,97401.84
2023-01-17T18:04:21.657Z,97390.62
2023-01-17T18:06:48.361Z,97371.03
2023-01-17T18:09:15.115Z,97361.16
2023-01-17T18:11:43.301Z,97361.06
2023-01-17T18:14:13.939Z,97354.75
2023-01-17T18:16:43.282Z,97341.22
2023-01-17T18:19:15.903Z,97339.47
2023-01-17T18:21:43.548Z,97334.22
2023-01-17T18:24:12.928Z,97334.09
2023-01-17T18:26:48.467Z,97327.59
2023-01-17T18:29:16.502Z,97317.41
2023-01-17T18:31:44.911Z,97311.09
2023-01-17T18:34:16.629Z,97315.75
2023-01-17T18:36:43.987Z,97300.34
2023-01-17T18:39:17.124Z,97295.37
2023-01-17T18:41:47.289Z,97301.19
2023-01-17T18:44:14.113Z,97304.50
2023-01-17T18:46:42.122Z,97297.75
2023-01-17T18:49:13.228Z,97293.09
2023-01-17T18:51:39.855Z,97283.81
2023-01-17T18:54:08.758Z,97271.44
2023-01-17T18:56:35.597Z,97264.34
2023-01-17T18:59:02.821Z,97261.44
2023-01-17T19:01:33.628Z,97254.66
2023-01-17T19:04:04.550Z,97251.53
2023-01-17T19:06:34.510Z,97243.84
2023-01-17T19:09:01.553Z,97242.91
2023-01-17T19:11:28.849Z,97233.41
2023-01-17T19:13:55.959Z,97224.78
2023-01-17T19:16:28.702Z,97213.81
2023-01-17T19:18:56.999Z,97198.13
2023-01-17T19:21:26.022Z,97216.59
2023-01-17T19:23:54.268Z,97203.50
2023-01-17T19:26:23.109Z,97201.59
2023-01-17T19:28:50.619Z,97199.41
2023-01-17T19:31:22.631Z,97193.88
2023-01-17T19:33:51.535Z,97203.31
2023-01-17T19:36:21.490Z,97191.16
2023-01-17T19:39:03.061Z,97178.69
2023-01-17T19:41:32.713Z,97168.78
2023-01-17T19:44:02.038Z,97170.38
2023-01-17T19:46:29.153Z,97162.22
2023-01-17T19:48:59.585Z,97147.72
2023-01-17T19:51:29.393Z,97131.84
2023-01-17T19:53:58.884Z,97128.59
2023-01-17T19:56:26.669Z,97112.37
2023-01-17T19:58:53.886Z,97111.19
2023-01-17T20:01:24.021Z,97106.25
2023-01-17T20:03:51.673Z,97109.03
2023-01-17T20:06:23.961Z,97110.28
2023-01-17T20:08:50.898Z,97111.13
2023-01-17T20:11:19.953Z,97122.22
2023-01-17T20:13:47.962Z,97119.37
2023-01-17T20:16:16.671Z,97109.00
2023-01-17T20:18:44.177Z,97106.22
2023-01-17T20:21:14.109Z,97109.12
2023-01-17T20:23:43.066Z,97120.78
2023-01-17T20:26:11.294Z,97114.88
2023-01-17T20:28:40.097Z,97116.31
2023-01-17T20:31:09.018Z,97121.63
2023-01-17T20:33:55.771Z,97123.19
2023-01-17T20:36:25.370Z,97134.50
2023-01-17T20:38:53.303Z,97120.53
2023-01-17T20:41:43.139Z,97105.63
2023-01-17T20:44:13.040Z,97098.84
2023-01-17T20:46:41.310Z,97087.16
2023-01-17T20:49:14.655Z,97077.41
2023-01-17T20:51:42.065Z,97078.56
2023-01-17T20:54:13.757Z,97073.81
2023-01-17T20:56:42.787Z,97062.34
2023-01-17T20:59:12.911Z,97052.13
2023-01-17T21:01:39.612Z,97052.66
2023-01-17T21:04:10.091Z,97037.78
2023-01-17T21:06:41.264Z,97034.50
2023-01-17T21:09:23.625Z,97034.16
2023-01-17T21:11:51.743Z,97034.47
2023-01-17T21:14:18.364Z,97026.03
2023-01-17T21:16:44.927Z,97011.66
2023-01-17T21:19:47.648Z,97011.59
2023-01-17T21:22:32.519Z,97016.84
2023-01-17T21:24:59.958Z,97014.84
2023-01-17T21:27:29.306Z,97007.81
2023-01-17T21:30:11.718Z,97001.09
2023-01-17T21:32:38.249Z,96973.16
2023-01-17T21:38:06.865Z,96973.56
2023-01-17T21:40:33.908Z,96973.66
2023-01-17T21:43:00.501Z,96965.22
2023-01-17T21:45:31.927Z,96965.88
2023-01-17T21:47:59.191Z,96968.31
2023-01-17T21:50:33.399Z,96984.22
2023-01-17T21:53:00.410Z,96972.72
2023-01-17T21:55:50.202Z,96963.91
2023-01-17T21:58:36.173Z,96959.47
2023-01-17T22:01:30.349Z,96951.81
2023-01-17T22:04:03.802Z,96950.47
2023-01-17T22:06:32.708Z,96946.34
2023-01-17T22:09:23.413Z,96957.12
2023-01-17T22:12:11.795Z,96929.59
2023-01-17T22:14:39.302Z,96950.00
2023-01-17T22:17:05.825Z,96948.72
2023-01-17T22:19:33.661Z,96935.34
2023-01-17T22:22:00.320Z,96941.34
2023-01-17T22:24:27.150Z,96928.84
2023-01-17T22:26:57.766Z,96924.19
2023-01-17T22:29:24.527Z,96926.81
2023-01-17T22:31:51.193Z,96922.44
2023-01-17T22:34:18.897Z,96924.13
2023-01-17T22:37:08.060Z,96942.50
2023-01-17T22:40:10.064Z,96941.06
2023-01-17T22:42:49.330Z,96941.38
2023-01-17T22:45:19.462Z,96957.12
2023-01-17T22:47:46.056Z,96965.31
2023-01-17T22:50:13.258Z,96958.09
2023-01-17T22:52:39.863Z,96953.69
2023-01-17T22:55:06.716Z,96961.16
2023-01-17T22:57:33.959Z,96957.44
2023-01-17T23:00:00.521Z,96943.91
2023-01-17T23:02:27.119Z,96946.25
2023-01-17T23:04:53.701Z,96958.81
2023-01-17T23:07:20.328Z,96962.13
2023-01-17T23:09:46.888Z,96969.50
2023-01-17T23:12:39.086Z,96974.87
2023-01-17T23:15:49.904Z,96983.31
2023-01-17T23:18:35.219Z,96991.25
2023-01-17T23:21:02.282Z,97000.25
2023-01-17T23:23:28.809Z,96992.81
2023-01-17T23:26:07.447Z,96997.87
2023-01-17T23:28:33.977Z,97017.66
2023-01-17T23:31:03.680Z,97028.41
2023-01-17T23:33:30.429Z,97019.53
2023-01-17T23:35:57.129Z,97003.75
2023-01-17T23:38:26.469Z,97011.78
2023-01-17T23:41:18.707Z,97011.56
2023-01-17T23:43:50.615Z,97008.72
2023-01-17T23:46:17.165Z,97002.91
2023-01-17T23:48:43.665Z,96996.50
2023-01-17T23:51:10.246Z,97002.16
2023-01-17T23:53:38.988Z,97008.56
2023-01-17T23:56:27.129Z,97002.31
2023-01-17T23:58:54.435Z,97020.28
